This is the latest recevied weather packets stored in our database for station/object KR4KUV. If no packets are shown the sender has not sent any weather packets the latest 1 day(s).
| Time | Temp. | Humidity | Pressure | Rain* | Wind** | Luminosity | Snow |
|---|---|---|---|---|---|---|---|
| 1778085755 | 20.56° C | 77% | 1016.6 hPa | 1.78 mm | - | 124 W/m² | - |
| 1778085452 | 20.56° C | 77% | 1016.6 hPa | 1.78 mm | - | 124 W/m² | - |
| 1778084843 | 22.22° C | 66% | 1016.6 hPa | 0 mm | - | 64 W/m² | - |
| 1778083633 | 22.78° C | 61% | 1016.4 hPa | 0 mm | - | 177 W/m² | - |
| 1778081592 | 23.33° C | 62% | 1016.1 hPa | 0 mm | - | 267 W/m² | - |
| 1778081289 | 22.78° C | 63% | 1016.2 hPa | 0 mm | - | 211 W/m² | - |
| 1778080685 | 22.78° C | 65% | 1016 hPa | 0 mm | - | 322 W/m² | - |
| 1778080078 | 22.78° C | 67% | 1015.9 hPa | 0 mm | - | 385 W/m² | - |
| 1778079472 | 21.67° C | 69% | 1015.9 hPa | 0 mm | - | 383 W/m² | - |
| 1778078866 | 21.67° C | 70% | 1015.9 hPa | 0 mm | - | 307 W/m² | - |
| 1778077656 | 20.56° C | 72% | 1015.4 hPa | 0 mm | - | 206 W/m² | - |
| 1778076750 | 20.56° C | 73% | 1015.8 hPa | 0 mm | - | 293 W/m² | - |
| 1778075234 | 20.56° C | 72% | 1015.9 hPa | 0 mm | - | 271 W/m² | - |
| 1778074021 | 20° C | 74% | 1015.8 hPa | 0 mm | - | 295 W/m² | - |
| 1778073718 | 19.44° C | 75% | 1015.9 hPa | 0 mm | - | 284 W/m² | - |
| 1778072506 | 17.78° C | 80% | 1015.5 hPa | 0 mm | - | 74 W/m² | - |
| 1778072204 | 17.78° C | 80% | 1015.5 hPa | 0 mm | - | 75 W/m² | - |
| 1778071599 | 17.22° C | 80% | 1015.7 hPa | 0 mm | - | 60 W/m² | - |
| 1778070994 | 17.22° C | 80% | 1015.8 hPa | 0 mm | - | 39 W/m² | - |
| 1778070389 | 17.22° C | 80% | 1015.8 hPa | 0 mm | - | 57 W/m² | - |
| 1778068574 | 16.67° C | 80% | 1016.3 hPa | 0 mm | - | 47 W/m² | - |
| 1778068272 | 16.67° C | 80% | 1016.4 hPa | 0 mm | - | 41 W/m² | - |
| 1778067667 | 16.67° C | 80% | 1016 hPa | 0 mm | - | 41 W/m² | - |
| 1778066758 | 16.67° C | 80% | 1015.4 hPa | 0 mm | - | 35 W/m² | - |
| 1778065548 | 16.11° C | 81% | 1015.7 hPa | 0 mm | - | 21 W/m² | - |
* Rain latest hour (hover to see other rain measurements)
** Current wind speed in m/s (hover to see current wind gust speed)